createdAt,value
2022-10-11T00:01:49.736Z,1.90
2022-10-11T00:04:17.153Z,2.20
2022-10-11T00:06:44.512Z,2.20
2022-10-11T00:09:12.444Z,2.03
2022-10-11T00:11:40.468Z,1.52
2022-10-11T00:14:09.552Z,2.20
2022-10-11T00:16:38.497Z,2.30
2022-10-11T00:19:05.857Z,2.00
2022-10-11T00:21:33.212Z,2.25
2022-10-11T00:24:00.617Z,1.83
2022-10-11T00:26:27.999Z,1.85
2022-10-11T00:28:55.724Z,2.17
2022-10-11T00:31:24.498Z,2.15
2022-10-11T00:33:51.916Z,1.80
2022-10-11T00:36:19.800Z,2.10
2022-10-11T00:38:47.230Z,2.20
2022-10-11T00:41:15.492Z,2.03
2022-10-11T00:43:42.910Z,1.83
2022-10-11T00:46:29.012Z,1.95
2022-10-11T00:48:58.428Z,2.30
2022-10-11T00:51:32.400Z,1.77
2022-10-11T00:54:00.836Z,1.98
2022-10-11T00:56:31.155Z,1.77
2022-10-11T00:58:59.226Z,2.13
2022-10-11T01:01:28.010Z,1.95
2022-10-11T01:03:56.026Z,1.63
2022-10-11T01:06:23.546Z,1.60
2022-10-11T01:08:51.722Z,1.52
2022-10-11T01:11:20.999Z,2.03
2022-10-11T01:13:53.156Z,1.95
2022-10-11T01:16:23.310Z,1.88
2022-10-11T01:18:55.586Z,1.73
2022-10-11T01:21:31.615Z,1.50
2022-10-11T01:24:16.916Z,1.67
2022-10-11T01:27:02.942Z,1.60
2022-10-11T01:29:39.834Z,1.88
2022-10-11T01:32:11.049Z,1.90
2022-10-11T01:34:41.066Z,1.60
2022-10-11T01:37:11.815Z,1.73
2022-10-11T01:39:41.233Z,1.93
2022-10-11T01:42:11.043Z,1.75
2022-10-11T01:44:39.308Z,2.07
2022-10-11T01:47:08.278Z,1.60
2022-10-11T01:49:35.692Z,1.80
2022-10-11T01:52:05.302Z,1.70
2022-10-11T01:55:08.121Z,2.00
2022-10-11T01:57:43.524Z,2.05
2022-10-11T02:00:13.849Z,1.70
2022-10-11T02:02:48.661Z,1.83
2022-10-11T02:05:19.647Z,1.70
2022-10-11T02:07:51.911Z,1.67
2022-10-11T02:10:22.241Z,1.50
2022-10-11T02:12:53.305Z,2.20
2022-10-11T02:15:21.376Z,1.80
2022-10-11T02:17:51.441Z,1.75
2022-10-11T02:20:20.357Z,1.90
2022-10-11T02:22:50.276Z,1.77
2022-10-11T02:25:20.041Z,2.13
2022-10-11T02:27:48.582Z,1.80
2022-10-11T02:30:16.735Z,1.98
2022-10-11T02:32:45.400Z,2.00
2022-10-11T02:35:14.573Z,1.80
2022-10-11T02:37:43.287Z,1.80
2022-10-11T02:40:13.325Z,2.03
2022-10-11T02:42:43.893Z,1.67
2022-10-11T02:45:14.199Z,1.60
2022-10-11T02:47:42.316Z,1.70
2022-10-11T02:50:11.280Z,1.60
2022-10-11T02:52:39.988Z,1.58
2022-10-11T02:55:08.353Z,1.77
2022-10-11T02:57:35.747Z,2.00
2022-10-11T03:00:03.221Z,1.50
2022-10-11T03:02:30.577Z,1.80
2022-10-11T03:04:57.951Z,1.90
2022-10-11T03:07:25.340Z,1.63
2022-10-11T03:09:54.077Z,1.90
2022-10-11T03:12:21.577Z,2.40
2022-10-11T03:14:49.013Z,1.77
2022-10-11T03:17:35.715Z,1.83
2022-10-11T03:20:03.718Z,1.77
2022-10-11T03:22:31.075Z,1.80
2022-10-11T03:25:03.577Z,1.80
2022-10-11T03:27:31.317Z,1.85
2022-10-11T03:29:58.824Z,1.83
2022-10-11T03:32:26.312Z,1.80
2022-10-11T03:34:53.724Z,1.75
2022-10-11T03:37:21.082Z,1.80
2022-10-11T03:39:48.734Z,1.83
2022-10-11T03:42:17.439Z,1.65
2022-10-11T03:44:44.817Z,1.73
2022-10-11T03:47:12.733Z,2.08
2022-10-11T03:49:43.579Z,1.67
2022-10-11T03:52:11.346Z,2.00
2022-10-11T03:54:38.921Z,1.95
2022-10-11T03:57:06.304Z,1.80
2022-10-11T03:59:35.015Z,1.92
2022-10-11T04:02:02.688Z,2.10
2022-10-11T04:04:30.125Z,1.70
2022-10-11T04:06:57.551Z,2.20
2022-10-11T04:09:24.922Z,1.52
2022-10-11T04:11:52.300Z,1.90
2022-10-11T04:14:19.636Z,1.80
2022-10-11T04:16:48.402Z,1.60
2022-10-11T04:19:15.745Z,2.25
2022-10-11T04:21:43.157Z,1.65
2022-10-11T04:24:11.757Z,2.10
2022-10-11T04:26:39.253Z,1.58
2022-10-11T04:29:06.775Z,2.20
2022-10-11T04:31:34.176Z,1.90
2022-10-11T04:34:02.915Z,1.60
2022-10-11T04:36:32.711Z,1.70
2022-10-11T04:39:01.600Z,1.50
2022-10-11T04:41:29.270Z,1.83
2022-10-11T04:43:56.657Z,1.92
2022-10-11T04:46:24.251Z,1.70
2022-10-11T04:48:51.654Z,2.00
2022-10-11T04:51:20.744Z,1.75
2022-10-11T04:53:48.537Z,1.85
2022-10-11T04:56:18.396Z,1.85
2022-10-11T04:58:47.988Z,1.92
2022-10-11T05:01:15.949Z,2.30
2022-10-11T05:03:43.359Z,1.95
2022-10-11T05:06:11.563Z,2.00
2022-10-11T05:08:40.620Z,1.60
2022-10-11T05:11:08.623Z,1.60
2022-10-11T05:13:36.548Z,2.15
2022-10-11T05:16:09.636Z,1.80
2022-10-11T05:18:38.335Z,1.63
2022-10-11T05:21:07.027Z,2.00
2022-10-11T05:23:35.800Z,1.90
2022-10-11T05:26:05.255Z,2.03
2022-10-11T05:28:33.182Z,2.13
2022-10-11T05:31:00.662Z,2.00
2022-10-11T05:33:28.240Z,1.80
2022-10-11T05:35:55.848Z,1.60
2022-10-11T05:38:23.387Z,2.50
2022-10-11T05:40:50.775Z,2.20
2022-10-11T05:43:19.785Z,2.22
2022-10-11T05:45:47.261Z,2.35
2022-10-11T05:48:14.604Z,1.88
2022-10-11T05:50:41.988Z,1.83
2022-10-11T05:53:09.374Z,1.80
2022-10-11T05:55:37.304Z,2.42
2022-10-11T05:58:05.035Z,1.85
2022-10-11T06:00:36.245Z,1.98
2022-10-11T06:03:03.600Z,1.70
2022-10-11T06:05:30.986Z,1.90
2022-10-11T06:07:58.872Z,2.20
2022-10-11T06:10:26.738Z,1.80
2022-10-11T06:12:54.257Z,1.80
2022-10-11T06:15:21.680Z,1.80
2022-10-11T06:17:50.473Z,2.10
2022-10-11T06:20:18.172Z,2.03
2022-10-11T06:22:45.611Z,1.67
2022-10-11T06:25:12.985Z,2.03
2022-10-11T06:27:40.620Z,2.08
2022-10-11T06:30:08.508Z,2.40
2022-10-11T06:32:35.892Z,1.63
2022-10-11T06:35:05.520Z,2.40
2022-10-11T06:37:32.902Z,2.20
2022-10-11T06:40:00.375Z,2.25
2022-10-11T06:42:27.744Z,3.20
2022-10-11T06:44:55.591Z,3.05
2022-10-11T06:47:23.019Z,3.45
2022-10-11T06:49:50.408Z,3.75
2022-10-11T06:52:19.137Z,3.17
2022-10-11T06:54:46.633Z,3.70
2022-10-11T06:57:14.023Z,3.70
2022-10-11T06:59:41.401Z,3.80
2022-10-11T07:02:08.807Z,3.60
2022-10-11T07:04:36.244Z,3.58
2022-10-11T07:07:03.644Z,3.03
2022-10-11T07:09:32.386Z,3.50
2022-10-11T07:11:59.772Z,3.00
2022-10-11T07:14:27.140Z,2.50
2022-10-11T07:16:54.537Z,2.70
2022-10-11T07:19:21.923Z,2.30
2022-10-11T07:21:49.299Z,2.00
2022-10-11T07:24:16.677Z,2.35
2022-10-11T07:26:45.413Z,2.00
2022-10-11T07:29:12.815Z,1.88
2022-10-11T07:31:42.062Z,2.10
2022-10-11T07:34:09.673Z,1.83
2022-10-11T07:36:37.347Z,1.83
2022-10-11T07:39:05.154Z,2.67
2022-10-11T07:41:32.504Z,3.13
2022-10-11T07:44:01.453Z,2.33
2022-10-11T07:46:28.848Z,2.20
2022-10-11T07:48:56.200Z,2.13
2022-10-11T07:51:24.617Z,2.10
2022-10-11T07:53:52.928Z,1.90
2022-10-11T07:56:21.860Z,2.05
2022-10-11T07:58:50.607Z,1.95
2022-10-11T08:01:19.761Z,1.42
2022-10-11T08:03:47.655Z,2.30
2022-10-11T08:06:16.082Z,1.70
2022-10-11T08:08:43.661Z,1.80
2022-10-11T08:11:11.108Z,1.60
2022-10-11T08:13:39.371Z,1.60
2022-10-11T08:16:13.352Z,1.90
2022-10-11T08:18:42.129Z,1.50
2022-10-11T08:21:09.696Z,1.60
2022-10-11T08:23:37.198Z,1.40
2022-10-11T08:26:05.526Z,2.00
2022-10-11T08:28:33.153Z,1.63
2022-10-11T08:31:00.566Z,1.80
2022-10-11T08:33:27.977Z,1.70
2022-10-11T08:35:57.240Z,1.60
2022-10-11T08:38:24.787Z,1.60
2022-10-11T08:40:55.134Z,1.20
2022-10-11T08:43:37.137Z,1.10
2022-10-11T08:46:05.744Z,1.50
2022-10-11T08:48:34.441Z,1.40
2022-10-11T08:51:04.694Z,1.50
2022-10-11T08:53:40.806Z,1.40
2022-10-11T08:56:10.485Z,1.30
2022-10-11T08:58:40.064Z,1.13
2022-10-11T09:01:07.890Z,1.35
2022-10-11T09:03:38.209Z,1.20
2022-10-11T09:06:14.793Z,1.40
2022-10-11T09:08:49.486Z,1.25
2022-10-11T09:11:21.956Z,1.20
2022-10-11T09:13:59.072Z,1.23
2022-10-11T09:16:30.549Z,1.20
2022-10-11T09:19:06.124Z,1.77
2022-10-11T09:21:37.372Z,1.15
2022-10-11T09:24:11.546Z,1.20
2022-10-11T09:26:42.310Z,1.42
2022-10-11T09:29:13.940Z,1.40
2022-10-11T09:31:41.637Z,1.45
2022-10-11T09:34:12.202Z,1.88
2022-10-11T09:36:42.760Z,1.52
2022-10-11T09:39:19.446Z,1.85
2022-10-11T09:41:50.145Z,1.40
2022-10-11T09:44:22.191Z,1.20
2022-10-11T09:46:50.454Z,1.38
2022-10-11T09:49:19.457Z,1.00
2022-10-11T09:51:52.308Z,1.20
2022-10-11T09:54:20.586Z,1.25
2022-10-11T09:56:48.015Z,1.13
2022-10-11T09:59:33.348Z,1.55
2022-10-11T10:02:07.823Z,1.08
2022-10-11T10:04:35.358Z,1.10
2022-10-11T10:07:12.647Z,1.38
2022-10-11T10:09:40.052Z,1.00
2022-10-11T10:12:12.199Z,1.08
2022-10-11T10:14:39.722Z,1.00
2022-10-11T10:17:08.520Z,1.13
2022-10-11T10:19:44.747Z,1.00
2022-10-11T10:22:18.328Z,1.20
2022-10-11T10:24:45.816Z,1.20
2022-10-11T10:27:18.060Z,1.23
2022-10-11T10:29:59.212Z,1.10
2022-10-11T10:32:29.191Z,1.20
2022-10-11T10:35:01.214Z,1.20
2022-10-11T10:37:32.375Z,1.20
2022-10-11T10:40:02.877Z,1.20
2022-10-11T10:42:30.437Z,1.30
2022-10-11T10:44:59.394Z,1.00
2022-10-11T10:47:41.766Z,1.30
2022-10-11T10:50:12.880Z,1.40
2022-10-11T10:52:47.488Z,1.23
2022-10-11T10:55:19.621Z,1.05
2022-10-11T10:57:51.644Z,1.30
2022-10-11T11:00:20.808Z,1.20
2022-10-11T11:02:51.301Z,1.20
2022-10-11T11:05:24.308Z,1.00
2022-10-11T11:07:55.335Z,1.10
2022-10-11T11:10:23.994Z,1.30
2022-10-11T11:12:54.996Z,1.40
2022-10-11T11:15:31.412Z,1.40
2022-10-11T11:18:05.302Z,1.00
2022-10-11T11:20:37.845Z,1.23
2022-10-11T11:23:10.013Z,1.13
2022-10-11T11:25:44.813Z,1.15
2022-10-11T11:28:19.372Z,1.13
2022-10-11T11:30:51.290Z,1.23
2022-10-11T11:33:22.552Z,1.02
2022-10-11T11:35:52.663Z,1.05
2022-10-11T11:38:28.545Z,1.33
2022-10-11T11:40:58.557Z,1.23
2022-10-11T11:43:29.193Z,1.23
2022-10-11T11:45:59.374Z,1.30
2022-10-11T11:48:27.381Z,1.00
2022-10-11T11:50:57.482Z,1.40
2022-10-11T11:53:33.367Z,1.30
2022-10-11T11:56:02.547Z,1.40
2022-10-11T11:58:35.344Z,1.30
2022-10-11T12:01:06.541Z,1.30
2022-10-11T12:03:40.628Z,1.17
2022-10-11T12:06:25.651Z,1.30
2022-10-11T12:09:03.710Z,1.40
2022-10-11T12:11:39.625Z,1.10
2022-10-11T12:14:16.285Z,1.10
2022-10-11T12:16:58.519Z,1.38
2022-10-11T12:19:25.934Z,1.10
2022-10-11T12:22:13.341Z,2.03
2022-10-11T12:24:55.189Z,1.55
2022-10-11T12:27:37.462Z,1.20
2022-10-11T12:30:05.131Z,1.40
2022-10-11T12:32:53.101Z,1.30
2022-10-11T12:35:37.738Z,1.30
2022-10-11T12:38:06.707Z,1.37
2022-10-11T12:40:37.620Z,1.20
2022-10-11T12:43:12.996Z,1.50
2022-10-11T12:45:41.211Z,1.02
2022-10-11T12:48:14.959Z,1.33
2022-10-11T12:50:46.084Z,1.48
2022-10-11T12:53:23.374Z,1.37
2022-10-11T12:55:54.407Z,1.75
2022-10-11T12:58:25.977Z,1.50
2022-10-11T13:01:12.149Z,1.30
2022-10-11T13:03:41.892Z,1.27
2022-10-11T13:06:13.235Z,1.55
2022-10-11T13:08:43.379Z,1.40
2022-10-11T13:11:17.656Z,1.33
2022-10-11T13:13:45.888Z,1.50
2022-10-11T13:16:14.234Z,1.30
2022-10-11T13:18:43.025Z,1.65
2022-10-11T13:21:20.285Z,1.40
2022-10-11T13:23:50.579Z,1.55
2022-10-11T13:26:19.316Z,1.40
2022-10-11T13:28:46.818Z,1.60
2022-10-11T13:31:14.255Z,1.30
2022-10-11T13:33:43.466Z,1.20
2022-10-11T13:36:14.919Z,1.50
2022-10-11T13:38:42.288Z,1.48
2022-10-11T13:41:10.412Z,1.08
2022-10-11T13:43:40.603Z,1.08
2022-10-11T13:46:12.202Z,1.05
2022-10-11T13:48:40.147Z,1.30
2022-10-11T13:51:08.643Z,1.30
2022-10-11T13:53:36.493Z,1.33
2022-10-11T13:56:05.246Z,1.40
2022-10-11T13:58:35.170Z,1.20
2022-10-11T14:01:05.383Z,1.40
2022-10-11T14:03:37.697Z,1.27
2022-10-11T14:06:05.479Z,1.20
2022-10-11T14:08:35.592Z,1.38
2022-10-11T14:11:06.549Z,1.40
2022-10-11T14:13:39.200Z,1.13
2022-10-11T14:16:10.015Z,1.10
2022-10-11T14:18:47.435Z,1.48
2022-10-11T14:21:35.532Z,1.20
2022-10-11T14:24:04.929Z,1.40
2022-10-11T14:26:33.452Z,1.15
2022-10-11T14:29:01.711Z,1.13
2022-10-11T14:31:30.705Z,1.10
2022-10-11T14:33:58.782Z,1.23
2022-10-11T14:36:26.224Z,1.20
2022-10-11T14:38:53.931Z,1.42
2022-10-11T14:41:21.329Z,0.90
2022-10-11T14:43:48.736Z,1.10
2022-10-11T14:46:20.927Z,1.05
2022-10-11T14:48:55.360Z,1.45
2022-10-11T14:51:25.712Z,1.35
2022-10-11T14:53:53.132Z,1.40
2022-10-11T14:56:21.630Z,1.27
2022-10-11T14:58:49.657Z,1.13
2022-10-11T15:01:18.032Z,1.38
2022-10-11T15:03:45.440Z,1.20
2022-10-11T15:06:17.478Z,1.30
2022-10-11T15:08:44.869Z,1.40
2022-10-11T15:11:12.446Z,1.13
2022-10-11T15:13:39.835Z,1.20
2022-10-11T15:16:07.906Z,1.48
2022-10-11T15:18:35.561Z,1.37
2022-10-11T15:21:02.943Z,1.50
2022-10-11T15:23:31.776Z,1.50
2022-10-11T15:25:59.279Z,1.20
2022-10-11T15:28:27.966Z,1.50
2022-10-11T15:30:55.717Z,0.98
2022-10-11T15:33:23.503Z,1.20
2022-10-11T15:35:51.024Z,1.00
2022-10-11T15:38:19.995Z,1.07
2022-10-11T15:40:49.141Z,1.08
2022-10-11T15:43:18.832Z,0.95
2022-10-11T15:45:49.497Z,1.30
2022-10-11T15:48:18.169Z,1.02
2022-10-11T15:50:45.817Z,1.42
2022-10-11T15:53:14.421Z,1.35
2022-10-11T15:55:43.419Z,1.38
2022-10-11T15:58:13.855Z,1.13
2022-10-11T16:00:41.372Z,1.20
2022-10-11T16:03:08.755Z,1.43
2022-10-11T16:05:36.207Z,1.08
2022-10-11T16:08:03.650Z,0.98
2022-10-11T16:10:31.059Z,1.23
2022-10-11T16:12:58.569Z,1.52
2022-10-11T16:15:27.377Z,1.10
2022-10-11T16:17:54.755Z,1.20
2022-10-11T16:20:24.537Z,1.20
2022-10-11T16:22:52.401Z,1.30
2022-10-11T16:25:20.516Z,1.40
2022-10-11T16:27:48.108Z,1.63
2022-10-11T16:30:16.128Z,1.15
2022-10-11T16:32:44.961Z,1.63
2022-10-11T16:35:12.681Z,1.48
2022-10-11T16:37:40.051Z,1.30
2022-10-11T16:40:08.487Z,1.17
2022-10-11T16:42:35.914Z,1.40
2022-10-11T16:45:03.728Z,1.30
2022-10-11T16:47:31.564Z,1.70
2022-10-11T16:50:00.289Z,1.70
2022-10-11T16:52:27.705Z,1.63
2022-10-11T16:54:55.051Z,1.80
2022-10-11T16:57:22.428Z,1.80
2022-10-11T16:59:49.850Z,2.10
2022-10-11T17:02:17.822Z,2.55
2022-10-11T17:04:45.230Z,2.80
2022-10-11T17:07:14.045Z,2.30
2022-10-11T17:09:44.015Z,2.05
2022-10-11T17:12:13.007Z,1.70
2022-10-11T17:14:40.983Z,1.90
2022-10-11T17:17:09.173Z,2.33
2022-10-11T17:19:41.374Z,4.70
2022-10-11T17:22:12.466Z,4.00
2022-10-11T17:24:41.198Z,4.40
2022-10-11T17:27:08.693Z,4.38
2022-10-11T17:29:36.237Z,4.22
2022-10-11T17:32:03.675Z,4.40
2022-10-11T17:34:31.100Z,5.10
2022-10-11T17:36:58.566Z,5.15
2022-10-11T17:39:26.246Z,5.25
2022-10-11T17:41:54.997Z,5.60
2022-10-11T17:44:22.630Z,5.40
2022-10-11T17:46:50.178Z,5.88
2022-10-11T17:49:17.661Z,6.55
2022-10-11T17:51:45.085Z,6.10
2022-10-11T17:54:13.373Z,6.87
2022-10-11T17:56:41.691Z,7.00
2022-10-11T17:59:12.632Z,7.82
2022-10-11T18:01:40.131Z,9.60
2022-10-11T18:04:10.032Z,10.98
2022-10-11T18:06:39.474Z,10.35
2022-10-11T18:09:07.397Z,12.50
2022-10-11T18:11:34.798Z,16.67
2022-10-11T18:14:02.356Z,17.33
2022-10-11T18:16:31.267Z,17.45
2022-10-11T18:18:58.867Z,18.40
2022-10-11T18:21:29.976Z,17.05
2022-10-11T18:24:01.702Z,17.25
2022-10-11T18:26:30.749Z,17.58
2022-10-11T18:28:59.017Z,16.17
2022-10-11T18:31:27.253Z,17.25
2022-10-11T18:33:56.043Z,17.65
2022-10-11T18:36:24.501Z,15.43
2022-10-11T18:38:53.625Z,13.35
2022-10-11T18:41:22.238Z,12.07
2022-10-11T18:43:50.160Z,11.68
2022-10-11T18:46:17.537Z,11.05
2022-10-11T18:48:45.819Z,10.10
2022-10-11T18:51:15.531Z,12.45
2022-10-11T18:53:43.428Z,13.60
2022-10-11T18:56:11.465Z,12.80
2022-10-11T18:58:39.811Z,13.88
2022-10-11T19:01:08.122Z,13.48
2022-10-11T19:03:35.630Z,12.10
2022-10-11T19:06:04.262Z,11.97
2022-10-11T19:08:33.552Z,11.70
2022-10-11T19:11:05.641Z,10.07
2022-10-11T19:13:33.020Z,9.60
2022-10-11T19:16:04.456Z,8.73
2022-10-11T19:18:32.109Z,9.27
2022-10-11T19:21:01.583Z,9.02
2022-10-11T19:23:33.795Z,11.15
2022-10-11T19:26:01.811Z,10.85
2022-10-11T19:28:30.093Z,11.30
2022-10-11T19:31:04.319Z,13.05
2022-10-11T19:33:32.145Z,12.30
2022-10-11T19:36:00.130Z,12.73
2022-10-11T19:38:27.511Z,13.15
2022-10-11T19:40:56.298Z,11.30
2022-10-11T19:43:23.727Z,10.95
2022-10-11T19:45:51.239Z,9.30
2022-10-11T19:48:18.609Z,9.30
2022-10-11T19:50:45.973Z,8.82
2022-10-11T19:53:13.333Z,8.70
2022-10-11T19:55:44.281Z,8.60
2022-10-11T19:58:15.162Z,8.07
2022-10-11T20:00:42.632Z,8.27
2022-10-11T20:03:10.016Z,8.15
2022-10-11T20:05:38.217Z,8.43
2022-10-11T20:08:05.709Z,8.00
2022-10-11T20:10:34.216Z,7.97
2022-10-11T20:13:01.576Z,7.70
2022-10-11T20:15:30.460Z,7.85
2022-10-11T20:17:57.846Z,7.55
2022-10-11T20:20:25.210Z,7.32
2022-10-11T20:22:53.429Z,7.80
2022-10-11T20:25:20.798Z,7.87
2022-10-11T20:27:48.162Z,8.32
2022-10-11T20:30:15.541Z,7.30
2022-10-11T20:32:44.289Z,7.00
2022-10-11T20:35:11.668Z,6.63
2022-10-11T20:37:39.009Z,6.60
2022-10-11T20:40:06.672Z,6.65
2022-10-11T20:42:34.079Z,6.70
2022-10-11T20:45:01.495Z,6.10
2022-10-11T20:47:28.861Z,5.97
2022-10-11T20:49:57.598Z,6.00
2022-10-11T20:52:24.987Z,6.47
2022-10-11T20:54:52.343Z,6.93
2022-10-11T20:57:19.711Z,7.63
2022-10-11T20:59:48.588Z,6.80
2022-10-11T21:02:18.973Z,5.90
2022-10-11T21:04:46.597Z,5.63
2022-10-11T21:07:15.357Z,5.65
2022-10-11T21:09:42.806Z,5.18
2022-10-11T21:12:10.204Z,5.10
2022-10-11T21:14:37.574Z,5.00
2022-10-11T21:17:04.927Z,5.50
2022-10-11T21:19:32.283Z,5.40
2022-10-11T21:21:59.675Z,6.00
2022-10-11T21:24:28.373Z,5.72
2022-10-11T21:27:00.287Z,5.68
2022-10-11T21:29:28.037Z,5.32
2022-10-11T21:31:55.430Z,5.53
2022-10-11T21:34:22.800Z,5.07
2022-10-11T21:36:50.167Z,6.03
2022-10-11T21:39:17.553Z,6.03
2022-10-11T21:41:46.284Z,5.45
2022-10-11T21:44:13.653Z,6.20
2022-10-11T21:47:06.125Z,5.68
2022-10-11T21:49:28.426Z,6.07
2022-10-11T21:51:55.903Z,5.70
2022-10-11T21:54:23.288Z,6.18
2022-10-11T21:56:52.032Z,6.35
2022-10-11T21:59:19.360Z,6.47
2022-10-11T22:01:46.793Z,6.20
2022-10-11T22:04:14.242Z,6.53
2022-10-11T22:06:41.588Z,6.45
2022-10-11T22:09:10.083Z,6.30
2022-10-11T22:11:37.579Z,5.97
2022-10-11T22:14:06.395Z,5.88
2022-10-11T22:16:33.899Z,5.93
2022-10-11T22:19:01.326Z,6.07
2022-10-11T22:21:28.738Z,6.30
2022-10-11T22:23:56.129Z,5.90
2022-10-11T22:26:24.942Z,5.88
2022-10-11T22:28:53.262Z,6.03
2022-10-11T22:31:22.679Z,5.88
2022-10-11T22:33:53.550Z,5.63
2022-10-11T22:36:20.923Z,6.32
2022-10-11T22:38:48.365Z,6.28
2022-10-11T22:41:15.744Z,6.27
2022-10-11T22:43:43.144Z,6.15
2022-10-11T22:46:10.574Z,5.88
2022-10-11T22:48:39.268Z,6.25
2022-10-11T22:51:06.695Z,6.00
2022-10-11T22:53:34.065Z,5.68
2022-10-11T22:56:01.459Z,6.40
2022-10-11T22:58:28.772Z,6.32
2022-10-11T23:00:56.109Z,6.18
2022-10-11T23:03:23.502Z,6.40
2022-10-11T23:05:58.755Z,6.93
2022-10-11T23:08:26.408Z,6.28
2022-10-11T23:10:53.749Z,6.30
2022-10-11T23:13:21.462Z,6.30
2022-10-11T23:15:48.829Z,6.68
2022-10-11T23:18:16.228Z,6.50
2022-10-11T23:20:43.588Z,6.88
2022-10-11T23:23:12.297Z,6.47
2022-10-11T23:25:39.729Z,6.50
2022-10-11T23:28:07.122Z,6.60
2022-10-11T23:30:34.676Z,7.90
2022-10-11T23:33:02.052Z,7.20
2022-10-11T23:35:29.421Z,7.25
2022-10-11T23:37:56.808Z,7.30
2022-10-11T23:40:25.535Z,7.65
2022-10-11T23:42:52.950Z,6.82
2022-10-11T23:45:20.321Z,7.43
2022-10-11T23:47:47.726Z,6.67
2022-10-11T23:50:15.106Z,6.70
2022-10-11T23:52:42.461Z,6.72
2022-10-11T23:55:10.125Z,7.35
2022-10-11T23:57:39.395Z,7.20
